Time;durP1;ratioP1;P1;durP2;ratioP2;P2;SDS_P1;SDS_P2;PMS_P1;PMS_P2;Temp;Humidity;BMP_temperature;BMP_pressure;BME280_temperature;BME280_humidity;BME280_pressure;Samples;Min_cycle;Max_cycle;Signal;HPM_P1;HPM_P2
2022/03/04 00:00:57;;;;;;;36.45;16.13;;;;;;;6.07;47.69;102085.41;4973852;28;20065;-51
2022/03/04 00:03:22;;;;;;;31.98;15.70;;;;;;;6.13;48.43;102083.94;4984293;28;20065;-53
2022/03/04 00:05:48;;;;;;;33.25;15.73;;;;;;;6.05;48.52;102091.31;4979898;28;20160;-52
2022/03/04 00:08:13;;;;;;;31.08;15.52;;;;;;;6.02;48.79;102080.81;4981568;28;20597;-56
2022/03/04 00:10:39;;;;;;;33.03;15.88;;;;;;;6.01;48.57;102089.38;4981675;28;20069;-52
2022/03/04 00:13:04;;;;;;;29.40;15.52;;;;;;;5.95;49.03;102094.25;4974945;28;20432;-53
2022/03/04 00:15:30;;;;;;;30.45;15.75;;;;;;;5.88;48.80;102092.16;4975474;28;20508;-54
2022/03/04 00:17:55;;;;;;;33.08;15.73;;;;;;;5.86;48.93;102096.31;4980869;28;20053;-54
2022/03/04 00:20:21;;;;;;;32.00;15.75;;;;;;;5.92;48.93;102089.78;4972525;28;20076;-53
2022/03/04 00:22:46;;;;;;;34.08;15.55;;;;;;;5.89;49.10;102094.81;4981695;28;20277;-48
2022/03/04 00:25:12;;;;;;;31.55;16.05;;;;;;;5.89;49.04;102093.94;4981056;28;20065;-55
2022/03/04 00:27:37;;;;;;;33.80;15.23;;;;;;;5.82;48.90;102092.69;4985046;28;20061;-54
2022/03/04 00:30:04;;;;;;;32.83;15.85;;;;;;;5.86;49.45;102092.03;4981395;28;20380;-55
2022/03/04 00:32:29;;;;;;;33.28;16.27;;;;;;;5.75;49.74;102093.19;4985109;28;20072;-52
2022/03/04 00:34:55;;;;;;;32.60;15.82;;;;;;;5.71;49.60;102092.13;4971322;28;20066;-54
2022/03/04 00:37:20;;;;;;;34.15;15.85;;;;;;;5.79;49.53;102096.84;4981455;28;20600;-52
2022/03/04 00:39:46;;;;;;;32.05;15.95;;;;;;;5.66;49.70;102087.53;4972106;28;20694;-50
2022/03/04 00:42:11;;;;;;;32.03;15.73;;;;;;;5.69;50.11;102092.84;4981828;28;20045;-50
2022/03/04 00:44:37;;;;;;;33.78;16.45;;;;;;;5.62;49.75;102094.22;4981032;28;20124;-50
2022/03/04 00:47:04;;;;;;;36.50;16.27;;;;;;;5.63;49.80;102102.88;4976043;28;20915;-50
2022/03/04 00:49:30;;;;;;;34.42;16.38;;;;;;;5.58;50.38;102096.59;4976120;28;21017;-57
2022/03/04 00:51:55;;;;;;;32.63;16.13;;;;;;;5.59;50.32;102098.38;4978040;28;20064;-51
2022/03/04 00:54:20;;;;;;;35.75;16.77;;;;;;;5.59;50.29;102098.38;4975840;28;20041;-55
2022/03/04 00:56:46;;;;;;;31.02;15.73;;;;;;;5.50;50.38;102100.44;4976338;28;20074;-50
2022/03/04 00:59:11;;;;;;;33.20;15.90;;;;;;;5.45;50.59;102100.22;4971090;28;20045;-51
2022/03/04 01:01:37;;;;;;;35.80;16.25;;;;;;;5.51;50.64;102102.22;4978030;28;20080;-52
2022/03/04 01:04:02;;;;;;;32.70;15.60;;;;;;;5.53;50.66;102104.09;4980041;28;20049;-55
2022/03/04 01:06:27;;;;;;;31.05;15.88;;;;;;;5.41;51.25;102098.28;4981341;28;20092;-53
2022/03/04 01:08:52;;;;;;;31.35;16.08;;;;;;;5.34;51.53;102105.63;4976403;28;20053;-54
2022/03/04 01:11:18;;;;;;;34.05;16.30;;;;;;;5.36;51.45;102104.03;4979490;28;21579;-52
2022/03/04 01:13:44;;;;;;;37.92;16.70;;;;;;;5.26;51.52;102100.91;4976086;28;20135;-52
2022/03/04 01:16:09;;;;;;;32.88;16.52;;;;;;;5.23;51.56;102105.94;4976784;28;20050;-53
2022/03/04 01:18:35;;;;;;;34.40;17.02;;;;;;;5.26;51.11;102100.91;4979212;28;20041;-54
2022/03/04 01:21:01;;;;;;;32.80;16.48;;;;;;;5.24;51.89;102101.66;4975759;28;20050;-54
2022/03/04 01:23:26;;;;;;;35.40;16.52;;;;;;;5.25;51.61;102101.72;4980371;28;20099;-53
2022/03/04 01:25:56;;;;;;;33.15;16.38;;;;;;;5.26;51.65;102092.28;4982122;28;20492;-52
2022/03/04 01:28:22;;;;;;;37.95;16.50;;;;;;;5.15;52.79;102096.88;4985274;28;20057;-52
2022/03/04 01:30:49;;;;;;;36.53;17.10;;;;;;;5.15;52.20;102095.97;4978229;28;20420;-50
2022/03/04 01:33:14;;;;;;;34.83;16.48;;;;;;;5.12;52.63;102101.00;4977130;28;20046;-52
2022/03/04 01:35:41;;;;;;;34.72;16.10;;;;;;;5.09;52.40;102098.22;4984365;28;20131;-53
2022/03/04 01:38:07;;;;;;;31.90;15.82;;;;;;;5.08;52.94;102096.44;4982137;28;20046;-51
2022/03/04 01:40:32;;;;;;;33.75;16.40;;;;;;;4.98;53.00;102094.16;4974370;28;20802;-55
2022/03/04 01:42:58;;;;;;;36.88;17.05;;;;;;;5.01;52.59;102102.06;4978314;28;20053;-54
2022/03/04 01:45:23;;;;;;;37.22;17.05;;;;;;;4.95;53.32;102104.31;4977084;28;20068;-54
2022/03/04 01:47:49;;;;;;;36.85;16.55;;;;;;;4.90;53.33;102094.63;4987556;28;20041;-50
2022/03/04 01:50:14;;;;;;;35.30;17.10;;;;;;;4.82;53.79;102102.75;4981808;28;20052;-53
2022/03/04 01:52:40;;;;;;;37.75;16.98;;;;;;;4.84;53.78;102098.56;4982107;28;20037;-54
2022/03/04 01:55:08;;;;;;;33.67;17.02;;;;;;;4.78;53.67;102093.94;4971642;28;20414;-53
2022/03/04 01:57:34;;;;;;;34.60;17.27;;;;;;;4.77;53.80;102096.44;4981928;28;20073;-51
2022/03/04 01:59:59;;;;;;;39.50;17.20;;;;;;;4.74;54.14;102094.59;4982277;28;20080;-51
2022/03/04 02:02:24;;;;;;;34.60;16.83;;;;;;;4.72;53.58;102096.19;4985956;28;20515;-54
2022/03/04 02:04:50;;;;;;;36.30;16.25;;;;;;;4.69;53.78;102090.88;4980425;28;20592;-54
2022/03/04 02:07:15;;;;;;;37.75;16.83;;;;;;;4.68;54.10;102091.66;4987794;28;20129;-52
2022/03/04 02:09:41;;;;;;;35.65;17.05;;;;;;;4.67;53.96;102084.72;4983859;28;20101;-56
2022/03/04 02:12:06;;;;;;;36.60;17.73;;;;;;;4.63;54.50;102081.88;4986057;28;20038;-55
2022/03/04 02:14:32;;;;;;;35.42;18.00;;;;;;;4.52;54.46;102088.09;4978658;28;20050;-53
2022/03/04 02:16:57;;;;;;;37.42;17.17;;;;;;;4.55;54.22;102090.88;4977333;28;20143;-56
2022/03/04 02:19:23;;;;;;;38.47;18.00;;;;;;;4.57;54.51;102076.38;4988099;28;20161;-52
2022/03/04 02:21:58;;;;;;;40.25;18.42;;;;;;;4.60;54.69;102090.34;4978651;28;20042;-50
2022/03/04 02:24:25;;;;;;;39.03;17.08;;;;;;;4.62;54.92;102088.72;4980831;28;20046;-55
2022/03/04 02:26:52;;;;;;;34.20;17.17;;;;;;;4.58;54.80;102086.75;4991535;28;20046;-52
2022/03/04 02:29:18;;;;;;;39.33;17.00;;;;;;;4.58;55.03;102084.19;4986413;28;20295;-52
2022/03/04 02:31:44;;;;;;;40.10;18.55;;;;;;;4.54;54.74;102077.06;4983744;28;20052;-55
2022/03/04 02:34:09;;;;;;;33.30;16.98;;;;;;;4.48;55.15;102082.78;4985295;28;20156;-48
2022/03/04 02:36:37;;;;;;;40.20;18.50;;;;;;;4.46;56.12;102081.78;4974121;28;20050;-53
2022/03/04 02:39:04;;;;;;;37.97;17.95;;;;;;;4.49;56.02;102068.19;4976936;28;20399;-55
2022/03/04 02:41:30;;;;;;;39.70;17.83;;;;;;;4.55;55.18;102072.78;4983681;28;20493;-50
2022/03/04 02:43:56;;;;;;;35.42;17.67;;;;;;;4.56;55.14;102062.56;4979323;28;20053;-54
2022/03/04 02:46:21;;;;;;;37.05;18.17;;;;;;;4.62;55.15;102069.75;4985367;28;20046;-54
2022/03/04 02:48:47;;;;;;;39.03;17.15;;;;;;;4.60;55.20;102067.09;4982046;28;20102;-51
2022/03/04 02:51:12;;;;;;;36.67;16.65;;;;;;;4.56;55.66;102065.16;4968489;28;20632;-53
2022/03/04 02:53:37;;;;;;;37.75;18.08;;;;;;;4.58;55.11;102066.09;4981516;28;20111;-52
2022/03/04 02:56:03;;;;;;;36.47;17.88;;;;;;;4.57;55.02;102068.63;4976356;28;20943;-52
2022/03/04 02:58:28;;;;;;;34.33;16.50;;;;;;;4.52;55.09;102070.03;4982886;28;20865;-52
2022/03/04 03:00:55;;;;;;;39.15;17.20;;;;;;;4.51;55.17;102065.69;4977569;28;20129;-50
2022/03/04 03:03:20;;;;;;;36.05;17.65;;;;;;;4.52;55.51;102070.03;4995359;28;20038;-51
2022/03/04 03:05:45;;;;;;;36.83;18.60;;;;;;;4.46;55.89;102066.28;4987112;28;20111;-52
2022/03/04 03:08:11;;;;;;;34.75;17.27;;;;;;;4.40;55.58;102063.38;4982575;28;20041;-53
2022/03/04 03:10:37;;;;;;;37.08;17.80;;;;;;;4.33;56.63;102062.97;4985065;28;20081;-51
2022/03/04 03:13:03;;;;;;;38.88;18.83;;;;;;;4.30;56.13;102063.66;4977380;28;20309;-52
2022/03/04 03:15:28;;;;;;;38.20;18.75;;;;;;;4.22;56.66;102064.00;4984909;28;20061;-53
2022/03/04 03:17:54;;;;;;;36.83;17.98;;;;;;;4.24;55.97;102065.00;4985868;28;20490;-51
2022/03/04 03:20:19;;;;;;;38.10;18.95;;;;;;;4.24;56.25;102070.16;4978473;28;20842;-50
2022/03/04 03:22:45;;;;;;;35.80;17.40;;;;;;;4.18;56.79;102060.38;4983072;28;20042;-52
2022/03/04 03:25:12;;;;;;;38.65;18.15;;;;;;;4.16;56.16;102067.13;4978714;28;20497;-54
2022/03/04 03:27:37;;;;;;;38.63;18.27;;;;;;;4.11;57.24;102072.81;4985964;28;20111;-53
2022/03/04 03:30:07;;;;;;;39.70;18.65;;;;;;;4.13;56.99;102060.91;4986001;28;20523;-53
2022/03/04 03:32:33;;;;;;;39.30;18.42;;;;;;;4.15;56.47;102064.47;4978331;28;20493;-53
2022/03/04 03:34:58;;;;;;;36.28;18.17;;;;;;;4.14;56.89;102060.13;4975658;28;20100;-50
2022/03/04 03:37:24;;;;;;;39.85;19.35;;;;;;;4.01;57.81;102068.84;4979109;28;20062;-53
2022/03/04 03:39:49;;;;;;;40.42;18.58;;;;;;;4.02;57.33;102066.34;4981381;28;20116;-51
2022/03/04 03:42:15;;;;;;;41.92;18.77;;;;;;;3.94;57.10;102070.16;4987102;28;20435;-50
2022/03/04 03:44:40;;;;;;;40.90;18.10;;;;;;;3.93;57.64;102073.53;4978962;28;20045;-56
2022/03/04 03:47:06;;;;;;;38.72;18.23;;;;;;;3.92;57.13;102070.84;4971777;28;20064;-54
2022/03/04 03:49:31;;;;;;;41.20;19.17;;;;;;;3.90;57.73;102064.72;4979317;28;20407;-52
2022/03/04 03:51:57;;;;;;;39.15;19.15;;;;;;;3.88;57.37;102069.78;4980569;28;20141;-54
2022/03/04 03:54:22;;;;;;;39.38;18.65;;;;;;;3.98;56.72;102061.78;4980003;28;20343;-53
2022/03/04 03:56:48;;;;;;;38.60;18.80;;;;;;;3.98;57.31;102061.78;4980665;28;20420;-54
2022/03/04 03:59:13;;;;;;;36.90;17.67;;;;;;;3.87;56.84;102064.53;4973326;28;20072;-51
2022/03/04 04:01:39;;;;;;;40.58;18.23;;;;;;;4.03;56.87;102069.78;4975399;28;20129;-53
2022/03/04 04:04:08;;;;;;;43.15;19.05;;;;;;;3.99;56.53;102066.16;4982859;28;20053;-54
2022/03/04 04:06:33;;;;;;;38.08;18.10;;;;;;;4.01;56.04;102076.56;4982082;28;20385;-54
2022/03/04 04:09:00;;;;;;;37.92;18.23;;;;;;;4.02;56.52;102075.78;4975352;28;20053;-54
2022/03/04 04:11:26;;;;;;;38.15;18.20;;;;;;;4.02;56.29;102074.09;4982751;28;20045;-52
2022/03/04 04:13:51;;;;;;;39.28;18.40;;;;;;;3.95;56.11;102084.84;4981800;28;20093;-52
2022/03/04 04:16:17;;;;;;;40.75;18.35;;;;;;;3.94;56.83;102077.91;4980839;28;20377;-51
2022/03/04 04:18:42;;;;;;;37.63;18.45;;;;;;;3.95;56.95;102083.94;4975895;28;20038;-53
2022/03/04 04:21:07;;;;;;;38.38;18.50;;;;;;;3.92;56.55;102083.75;4972490;28;20106;-51
2022/03/04 04:23:33;;;;;;;42.28;18.65;;;;;;;3.91;56.96;102087.13;4985105;28;20053;-53
2022/03/04 04:25:58;;;;;;;41.15;18.95;;;;;;;3.92;56.16;102087.22;4983985;28;20057;-50
2022/03/04 04:28:25;;;;;;;39.47;17.80;;;;;;;3.93;56.79;102098.44;4986079;28;20057;-55
2022/03/04 04:30:51;;;;;;;43.78;19.20;;;;;;;3.96;56.44;102091.78;4975325;28;20094;-52
2022/03/04 04:33:17;;;;;;;41.88;19.02;;;;;;;3.83;56.92;102096.13;4985111;28;20050;-53
2022/03/04 04:35:42;;;;;;;38.60;18.23;;;;;;;3.76;57.21;102088.81;4982842;28;20206;-52
2022/03/04 04:38:08;;;;;;;38.67;18.42;;;;;;;3.91;56.37;102098.34;4976298;28;20065;-50
2022/03/04 04:40:33;;;;;;;37.30;17.88;;;;;;;3.77;57.18;102094.06;4977555;28;20046;-54
2022/03/04 04:42:58;;;;;;;43.80;18.73;;;;;;;3.84;56.24;102092.75;4974469;28;20366;-52
2022/03/04 04:45:26;;;;;;;40.03;18.48;;;;;;;3.86;56.87;102089.44;4980219;28;20057;-52
2022/03/04 04:47:51;;;;;;;38.15;18.02;;;;;;;3.80;57.19;102093.34;4998393;28;20140;-51
2022/03/04 04:50:17;;;;;;;40.97;18.40;;;;;;;3.82;57.07;102090.06;4976375;28;20045;-54
2022/03/04 04:52:42;;;;;;;39.42;18.48;;;;;;;3.86;56.69;102094.59;4984379;28;20076;-51
2022/03/04 04:55:08;;;;;;;41.15;19.25;;;;;;;3.82;56.66;102091.75;4970705;28;21091;-55
2022/03/04 04:57:34;;;;;;;41.83;19.00;;;;;;;3.76;57.44;102100.03;4982028;28;20595;-54
2022/03/04 04:59:59;;;;;;;42.15;19.17;;;;;;;3.79;57.13;102091.56;4977239;28;20405;-53
2022/03/04 05:02:25;;;;;;;41.10;19.83;;;;;;;3.67;57.06;102095.19;4980704;28;20750;-55
2022/03/04 05:04:50;;;;;;;42.70;19.02;;;;;;;3.67;57.22;102091.72;4976676;28;20052;-53
2022/03/04 05:07:15;;;;;;;45.70;19.33;;;;;;;3.67;57.16;102092.59;4981669;28;20674;-52
2022/03/04 05:09:41;;;;;;;43.40;19.60;;;;;;;3.59;57.94;102095.53;4983879;28;20088;-53
2022/03/04 05:12:07;;;;;;;44.58;20.05;;;;;;;3.65;57.72;102101.97;4977698;28;20388;-53
2022/03/04 05:14:32;;;;;;;45.38;19.58;;;;;;;3.57;58.09;102094.53;4981929;28;20050;-52
2022/03/04 05:16:57;;;;;;;43.92;19.40;;;;;;;3.59;57.75;102087.81;4974244;28;20037;-52
2022/03/04 05:19:23;;;;;;;39.90;19.83;;;;;;;3.63;58.38;102098.38;4978438;28;20584;-51
2022/03/04 05:21:48;;;;;;;42.67;19.27;;;;;;;3.59;57.92;102095.53;4984956;28;20155;-50
2022/03/04 05:24:13;;;;;;;41.83;19.25;;;;;;;3.55;58.03;102093.53;4983736;28;20227;-52
2022/03/04 05:26:40;;;;;;;44.92;19.13;;;;;;;3.50;58.25;102106.16;4988162;28;20041;-55
2022/03/04 05:29:11;;;;;;;41.35;19.42;;;;;;;3.57;58.44;102103.16;4979981;28;20644;-50
2022/03/04 05:31:38;;;;;;;45.25;20.38;;;;;;;3.64;57.91;102107.00;4980064;28;20046;-55
2022/03/04 05:34:04;;;;;;;42.15;19.48;;;;;;;3.54;58.71;102108.13;4989948;28;20111;-50
2022/03/04 05:36:29;;;;;;;46.10;20.67;;;;;;;3.49;58.50;102101.81;4978178;28;20046;-53
2022/03/04 05:38:55;;;;;;;44.20;20.50;;;;;;;3.44;59.09;102104.91;4984323;28;20741;-54
2022/03/04 05:41:21;;;;;;;38.15;18.83;;;;;;;3.49;58.28;102101.81;4983327;28;20042;-50
2022/03/04 05:43:47;;;;;;;40.17;19.27;;;;;;;3.54;59.04;102105.53;4982965;28;20041;-51
2022/03/04 05:46:13;;;;;;;42.85;19.90;;;;;;;3.53;58.43;102103.78;4986619;28;20103;-53
2022/03/04 05:48:40;;;;;;;41.63;20.40;;;;;;;3.49;58.38;102116.38;4985323;28;20059;-53
2022/03/04 05:51:06;;;;;;;43.20;20.58;;;;;;;3.52;58.69;102104.59;4980079;28;20120;-53
2022/03/04 05:53:32;;;;;;;44.92;20.52;;;;;;;3.52;58.88;102106.28;4979554;28;20116;-54
2022/03/04 05:56:00;;;;;;;43.08;20.70;;;;;;;3.44;58.33;102110.06;4987387;28;20548;-54
2022/03/04 05:58:25;;;;;;;43.10;19.67;;;;;;;3.48;59.11;102099.13;4982851;28;20471;-55
2022/03/04 06:00:51;;;;;;;45.30;20.45;;;;;;;3.49;58.65;102106.97;4981199;28;20076;-54
2022/03/04 06:03:17;;;;;;;43.38;19.70;;;;;;;3.46;58.58;102117.09;4982804;28;20045;-55
2022/03/04 06:05:42;;;;;;;46.08;20.75;;;;;;;3.42;58.66;102120.25;4983991;28;20516;-55
2022/03/04 06:08:08;;;;;;;49.55;19.40;;;;;;;3.49;58.79;102125.00;4985030;28;20104;-54
2022/03/04 06:10:33;;;;;;;44.83;20.25;;;;;;;3.43;58.20;102132.38;4980660;28;20084;-52
2022/03/04 06:12:59;;;;;;;45.70;19.58;;;;;;;3.34;58.68;102125.75;4978444;28;20417;-56
2022/03/04 06:15:24;;;;;;;45.88;20.23;;;;;;;3.23;59.27;102130.25;4988701;28;20129;-53
2022/03/04 06:17:50;;;;;;;44.97;21.08;;;;;;;3.19;59.04;102125.69;4982422;28;20045;-53
2022/03/04 06:20:17;;;;;;;45.97;20.65;;;;;;;3.17;60.13;102129.88;4986196;28;20077;-51
2022/03/04 06:22:43;;;;;;;42.35;20.33;;;;;;;3.26;58.88;102135.59;4987248;28;20696;-54
2022/03/04 06:25:10;;;;;;;49.72;20.67;;;;;;;3.27;58.99;102134.78;4981408;28;21445;-50
2022/03/04 06:27:37;;;;;;;47.55;20.38;;;;;;;3.25;58.92;102149.25;4982210;28;20054;-53
2022/03/04 06:30:04;;;;;;;42.75;19.40;;;;;;;3.22;59.64;102138.78;4979858;28;20414;-53
2022/03/04 06:32:30;;;;;;;47.33;21.15;;;;;;;3.25;59.06;102141.53;4990455;28;20176;-50
2022/03/04 06:34:57;;;;;;;47.05;21.80;;;;;;;3.29;59.62;102138.38;4982895;28;20820;-53
2022/03/04 06:37:22;;;;;;;45.90;20.90;;;;;;;3.29;59.18;102143.53;4985931;28;20060;-53
2022/03/04 06:39:48;;;;;;;46.53;20.52;;;;;;;3.33;59.25;102147.16;4979474;28;20066;-53
2022/03/04 06:42:14;;;;;;;44.25;20.52;;;;;;;3.35;59.03;102146.47;4981752;28;20049;-50
2022/03/04 06:44:39;;;;;;;41.28;19.98;;;;;;;3.38;59.28;102154.38;4984180;28;20433;-51
2022/03/04 06:47:05;;;;;;;44.33;20.17;;;;;;;3.33;58.76;102158.38;4975706;28;20357;-50
2022/03/04 06:49:30;;;;;;;47.22;20.73;;;;;;;3.32;59.36;102163.41;4980984;28;20806;-52
2022/03/04 06:51:55;;;;;;;48.65;20.83;;;;;;;3.43;58.94;102160.72;4984620;28;20422;-52
2022/03/04 06:54:21;;;;;;;42.70;20.83;;;;;;;3.47;58.88;102161.81;4978509;28;20045;-52
2022/03/04 06:56:46;;;;;;;45.38;20.63;;;;;;;3.58;58.82;102160.78;4981911;28;20610;-53
2022/03/04 06:59:11;;;;;;;47.88;21.17;;;;;;;3.80;58.77;102161.28;4976327;28;20081;-55
2022/03/04 07:01:37;;;;;;;45.38;20.92;;;;;;;4.60;58.56;102166.91;4979303;28;20378;-50
2022/03/04 07:04:02;;;;;;;45.55;21.10;;;;;;;5.43;54.88;102161.31;4985275;28;20042;-53
2022/03/04 07:06:27;;;;;;;42.85;20.40;;;;;;;6.14;52.48;102172.06;4979089;28;20424;-52
2022/03/04 07:08:53;;;;;;;40.60;19.90;;;;;;;6.50;50.85;102165.25;4980007;28;20086;-53
2022/03/04 07:11:18;;;;;;;45.03;20.23;;;;;;;6.67;50.37;102168.69;4986436;28;20120;-53
2022/03/04 07:13:44;;;;;;;39.42;19.92;;;;;;;6.93;49.38;102166.56;4982350;28;20050;-54
2022/03/04 07:16:10;;;;;;;42.33;19.88;;;;;;;7.09;48.42;102180.25;4984023;28;20501;-53
2022/03/04 07:18:35;;;;;;;41.85;19.88;;;;;;;6.98;48.80;102186.63;4986398;28;20049;-54
2022/03/04 07:21:01;;;;;;;42.15;21.27;;;;;;;6.71;49.27;102186.19;4980928;28;20064;-52
2022/03/04 07:23:27;;;;;;;38.47;20.40;;;;;;;6.56;49.77;102186.31;4976455;28;20065;-52
2022/03/04 07:25:52;;;;;;;39.78;20.50;;;;;;;6.25;50.75;102177.78;4984257;28;20088;-54
2022/03/04 07:28:18;;;;;;;43.75;21.15;;;;;;;6.05;51.51;102176.75;4981155;28;20046;-51
2022/03/04 07:30:49;;;;;;;41.58;20.95;;;;;;;5.71;51.94;102176.63;4984033;28;20041;-54
2022/03/04 07:33:15;;;;;;;44.85;21.50;;;;;;;5.46;52.69;102181.28;4980817;28;20053;-50
2022/03/04 07:35:42;;;;;;;44.40;21.70;;;;;;;5.39;53.70;102184.34;4985667;28;20096;-50
2022/03/04 07:38:07;;;;;;;42.85;21.10;;;;;;;5.44;53.65;102191.53;4980354;28;20034;-52
2022/03/04 07:40:33;;;;;;;43.63;21.00;;;;;;;5.58;52.81;102185.44;4978006;28;20451;-53
2022/03/04 07:42:58;;;;;;;45.42;21.17;;;;;;;5.26;53.80;102188.81;4973198;28;20049;-52
2022/03/04 07:45:24;;;;;;;46.00;21.60;;;;;;;5.35;53.70;102179.81;4982886;28;20228;-54
2022/03/04 07:47:49;;;;;;;43.92;21.60;;;;;;;5.50;53.51;102178.94;4977256;28;20128;-55
2022/03/04 07:50:15;;;;;;;40.95;21.15;;;;;;;5.30;53.02;102170.13;4975777;28;20046;-51
2022/03/04 07:52:42;;;;;;;44.97;21.27;;;;;;;5.52;53.17;102176.44;4975422;28;20491;-50
2022/03/04 07:55:09;;;;;;;44.78;21.52;;;;;;;5.56;53.12;102175.78;4974332;28;20488;-54
2022/03/04 07:57:35;;;;;;;41.13;20.67;;;;;;;5.64;53.14;102180.59;4980594;28;20044;-58
2022/03/04 08:00:01;;;;;;;43.30;21.23;;;;;;;5.79;52.48;102175.34;4979827;28;20041;-51
2022/03/04 08:02:26;;;;;;;43.97;21.15;;;;;;;5.89;51.82;102172.47;4978648;28;20046;-52
2022/03/04 08:04:51;;;;;;;43.22;21.77;;;;;;;5.88;52.50;102178.44;4974757;28;20042;-50
2022/03/04 08:07:18;;;;;;;43.40;21.13;;;;;;;5.88;51.85;102177.56;4977328;28;20144;-56
2022/03/04 08:09:44;;;;;;;45.38;21.13;;;;;;;6.15;51.09;102183.31;4992711;28;20056;-53
2022/03/04 08:12:10;;;;;;;42.83;20.48;;;;;;;6.32;50.75;102198.00;4979555;28;20401;-51
2022/03/04 08:14:36;;;;;;;43.88;20.85;;;;;;;6.30;50.96;102200.50;4978070;28;20669;-54
2022/03/04 08:17:01;;;;;;;50.78;20.98;;;;;;;6.30;51.01;102203.09;4970555;28;20112;-52
2022/03/04 08:19:26;;;;;;;42.40;21.27;;;;;;;6.45;50.58;102209.09;4981232;28;20430;-51
2022/03/04 08:21:52;;;;;;;39.88;20.63;;;;;;;6.17;51.27;102204.97;4978609;28;20050;-52
2022/03/04 08:24:17;;;;;;;41.47;20.35;;;;;;;6.34;50.25;102209.34;4986460;28;20518;-53
2022/03/04 08:26:44;;;;;;;39.65;19.65;;;;;;;6.50;49.94;102206.72;4978787;28;20048;-51
2022/03/04 08:29:12;;;;;;;43.10;20.02;;;;;;;6.81;49.41;102203.97;4979234;28;22037;-53
2022/03/04 08:31:37;;;;;;;41.90;20.40;;;;;;;6.89;49.59;102198.31;4972432;28;20047;-53
2022/03/04 08:34:04;;;;;;;41.00;20.42;;;;;;;7.23;49.22;102205.16;4982221;28;20084;-55
2022/03/04 08:36:29;;;;;;;39.17;20.23;;;;;;;7.23;47.93;102207.75;4975657;28;20045;-51
2022/03/04 08:38:55;;;;;;;39.13;20.92;;;;;;;7.16;48.02;102203.09;4975287;28;20509;-50
2022/03/04 08:41:20;;;;;;;41.08;19.73;;;;;;;7.27;47.93;102199.28;4984239;28;20046;-54
2022/03/04 08:43:47;;;;;;;40.78;20.20;;;;;;;7.16;48.07;102197.91;4973995;28;20068;-54
2022/03/04 08:46:13;;;;;;;43.85;20.55;;;;;;;7.31;47.92;102196.94;4981209;28;20481;-51
2022/03/04 08:48:39;;;;;;;38.17;20.15;;;;;;;7.09;48.28;102201.00;4979407;28;20048;-51
2022/03/04 08:51:05;;;;;;;42.00;20.80;;;;;;;7.26;48.05;102202.69;4974097;28;20615;-51
2022/03/04 08:53:30;;;;;;;38.85;20.70;;;;;;;7.38;48.64;102213.66;4979942;28;20053;-54
2022/03/04 08:55:56;;;;;;;40.53;20.30;;;;;;;7.56;47.52;102198.94;4981550;28;20073;-53
2022/03/04 08:58:21;;;;;;;37.78;20.45;;;;;;;7.63;47.99;102201.03;4984465;28;20085;-52
2022/03/04 09:00:47;;;;;;;41.08;21.33;;;;;;;7.66;47.31;102196.00;4973613;28;20128;-54
2022/03/04 09:03:13;;;;;;;39.80;20.08;;;;;;;7.38;47.92;102203.28;4975496;28;20531;-51
2022/03/04 09:05:40;;;;;;;38.63;20.45;;;;;;;7.57;47.58;102195.53;5018884;28;22308;-55
2022/03/04 09:08:05;;;;;;;40.60;21.00;;;;;;;7.62;47.55;102201.84;5001242;28;20045;-51
2022/03/04 09:10:31;;;;;;;39.53;20.65;;;;;;;7.58;47.37;102207.72;4997575;28;20044;-52
2022/03/04 09:12:57;;;;;;;39.15;20.65;;;;;;;7.83;47.19;102209.72;4985508;28;20087;-51
2022/03/04 09:15:22;;;;;;;39.15;20.48;;;;;;;7.79;47.23;102197.44;4997868;28;20144;-53
2022/03/04 09:17:48;;;;;;;42.05;20.77;;;;;;;8.08;46.94;102203.94;4998759;28;20154;-51
2022/03/04 09:20:14;;;;;;;43.33;21.05;;;;;;;8.15;46.70;102206.00;4999618;28;20045;-53
2022/03/04 09:22:40;;;;;;;40.80;20.27;;;;;;;7.94;47.11;102203.31;5002271;28;20623;-52
2022/03/04 09:25:06;;;;;;;37.50;20.15;;;;;;;8.21;46.77;102202.78;4996337;28;20077;-53
2022/03/04 09:27:32;;;;;;;43.38;21.25;;;;;;;8.53;46.37;102203.41;4995921;28;20075;-51
2022/03/04 09:30:00;;;;;;;39.83;20.67;;;;;;;8.48;45.98;102209.19;4994697;28;20092;-54
2022/03/04 09:32:25;;;;;;;40.22;20.73;;;;;;;8.42;46.44;102211.53;5002244;28;20037;-54
2022/03/04 09:34:51;;;;;;;38.22;20.10;;;;;;;8.55;46.12;102201.72;4993673;28;21405;-52
2022/03/04 09:37:16;;;;;;;41.20;20.92;;;;;;;8.50;46.45;102205.84;4993194;28;20069;-54
2022/03/04 09:39:42;;;;;;;39.75;20.58;;;;;;;8.43;46.13;102203.78;4999032;28;20054;-52
2022/03/04 09:42:07;;;;;;;45.78;20.75;;;;;;;8.41;46.42;102214.97;5003552;28;20048;-51
2022/03/04 09:44:33;;;;;;;37.58;20.33;;;;;;;8.80;45.38;102210.56;4999958;28;20044;-54
2022/03/04 09:47:01;;;;;;;37.55;20.88;;;;;;;8.64;45.09;102211.63;4995611;28;20452;-52
2022/03/04 09:49:31;;;;;;;41.58;20.77;;;;;;;8.58;45.89;102218.28;5001153;28;20037;-51
2022/03/04 09:51:57;;;;;;;37.75;20.27;;;;;;;8.43;45.73;102232.38;4996236;28;20096;-51
2022/03/04 09:54:27;;;;;;;40.30;20.25;;;;;;;8.62;45.95;102228.88;5002152;28;20135;-53
2022/03/04 09:56:53;;;;;;;38.40;20.85;;;;;;;9.05;45.55;102221.16;4994488;28;20080;-54
2022/03/04 09:59:19;;;;;;;42.40;20.88;;;;;;;9.34;44.97;102227.53;4998701;28;20037;-50
2022/03/04 10:01:47;;;;;;;42.40;20.13;;;;;;;9.01;45.50;102228.78;5000918;28;20606;-52
2022/03/04 10:04:13;;;;;;;41.97;21.17;;;;;;;9.08;44.79;102226.50;5000163;28;20045;-52
2022/03/04 10:06:39;;;;;;;40.70;20.65;;;;;;;8.97;44.51;102217.34;5000390;28;20060;-54
2022/03/04 10:09:05;;;;;;;37.08;19.75;;;;;;;8.82;44.70;102219.31;4999568;28;20076;-52
2022/03/04 10:11:32;;;;;;;38.33;20.15;;;;;;;9.12;44.90;102201.47;5001207;28;20049;-51
2022/03/04 10:14:00;;;;;;;42.53;20.80;;;;;;;9.17;45.69;102207.75;5006098;28;20063;-55
2022/03/04 10:16:36;;;;;;;37.70;20.30;;;;;;;9.27;45.24;102200.38;4989757;28;20646;-54
2022/03/04 10:19:13;;;;;;;38.63;20.05;;;;;;;9.42;44.91;102202.69;4994330;28;20508;-54
2022/03/04 10:21:55;;;;;;;39.20;20.45;;;;;;;9.25;44.44;102198.53;4995496;28;20443;-53
2022/03/04 10:24:35;;;;;;;39.13;20.50;;;;;;;9.55;45.00;102199.75;5001016;28;20039;-54
2022/03/04 10:27:04;;;;;;;38.08;20.25;;;;;;;9.05;45.44;102202.06;4997773;28;20037;-53
2022/03/04 10:29:32;;;;;;;36.30;20.45;;;;;;;9.15;45.30;102201.63;4998943;28;21047;-52
2022/03/04 10:32:22;;;;;;;47.25;21.25;;;;;;;9.15;46.07;102201.63;5004439;28;20530;-53
2022/03/04 10:35:04;;;;;;;40.42;21.30;;;;;;;9.53;45.26;102200.50;4999642;28;20528;-53
2022/03/04 10:37:44;;;;;;;40.35;20.85;;;;;;;9.73;43.75;102197.84;5003250;28;20365;-55
2022/03/04 10:40:22;;;;;;;40.63;20.35;;;;;;;9.86;43.93;102195.69;5003150;28;20524;-50
2022/03/04 10:42:52;;;;;;;38.55;20.15;;;;;;;9.69;44.04;102190.75;4997749;28;20041;-53
2022/03/04 10:45:25;;;;;;;38.40;20.85;;;;;;;9.69;44.09;102193.34;4998535;28;21280;-53
2022/03/04 10:48:03;;;;;;;38.40;20.77;;;;;;;9.66;44.50;102197.53;5001946;28;20049;-53
2022/03/04 10:50:33;;;;;;;37.65;20.63;;;;;;;9.78;43.44;102205.81;5001994;28;20437;-53
2022/03/04 10:53:04;;;;;;;35.78;19.92;;;;;;;9.82;42.95;102194.66;4996172;28;20052;-53
2022/03/04 10:55:30;;;;;;;35.90;19.95;;;;;;;9.84;43.26;102197.34;5003714;28;20037;-53
2022/03/04 10:57:57;;;;;;;38.53;20.13;;;;;;;9.94;43.63;102202.09;4999734;28;20042;-54
2022/03/04 11:00:27;;;;;;;39.10;20.33;;;;;;;9.81;44.64;102194.63;4997154;28;20045;-53
2022/03/04 11:02:54;;;;;;;35.30;20.17;;;;;;;9.95;44.17;102193.41;4994268;28;20049;-53
2022/03/04 11:05:20;;;;;;;43.03;21.10;;;;;;;10.04;43.27;102193.75;5002709;28;20076;-53
2022/03/04 11:07:46;;;;;;;38.33;20.60;;;;;;;10.28;42.99;102199.00;5004771;28;20099;-54
2022/03/04 11:10:12;;;;;;;41.63;20.70;;;;;;;10.24;43.70;102202.34;5002989;28;20038;-51
2022/03/04 11:12:40;;;;;;;35.92;21.13;;;;;;;10.14;43.83;102201.97;4999287;28;20057;-53